sensor_id;sensor_type;location;lat;lon;timestamp;P1;durP1;ratioP1;P2;durP2;ratioP2
33150;SDS011;19508;42.578;23.416;2024-02-21T00:01:21;22.13;;;8.07;;
33150;SDS011;19508;42.578;23.416;2024-02-21T00:03:47;16.23;;;7.78;;
33150;SDS011;19508;42.578;23.416;2024-02-21T00:06:12;16.30;;;7.20;;
33150;SDS011;19508;42.578;23.416;2024-02-21T00:08:38;14.60;;;6.78;;
33150;SDS011;19508;42.578;23.416;2024-02-21T00:11:03;16.73;;;7.63;;
33150;SDS011;19508;42.578;23.416;2024-02-21T00:13:28;19.67;;;9.38;;
33150;SDS011;19508;42.578;23.416;2024-02-21T00:15:54;16.63;;;8.30;;
33150;SDS011;19508;42.578;23.416;2024-02-21T00:18:20;18.45;;;8.57;;
33150;SDS011;19508;42.578;23.416;2024-02-21T00:20:45;21.65;;;9.02;;
33150;SDS011;19508;42.578;23.416;2024-02-21T00:23:11;20.38;;;9.60;;
33150;SDS011;19508;42.578;23.416;2024-02-21T00:25:36;22.00;;;10.50;;
33150;SDS011;19508;42.578;23.416;2024-02-21T00:28:02;23.20;;;9.68;;
33150;SDS011;19508;42.578;23.416;2024-02-21T00:30:28;21.58;;;9.02;;
33150;SDS011;19508;42.578;23.416;2024-02-21T00:32:53;16.70;;;8.80;;
33150;SDS011;19508;42.578;23.416;2024-02-21T00:35:19;18.67;;;8.38;;
33150;SDS011;19508;42.578;23.416;2024-02-21T00:37:44;16.83;;;9.05;;
33150;SDS011;19508;42.578;23.416;2024-02-21T00:40:09;16.75;;;8.43;;
33150;SDS011;19508;42.578;23.416;2024-02-21T00:42:35;22.40;;;10.27;;
33150;SDS011;19508;42.578;23.416;2024-02-21T00:45:01;21.42;;;10.35;;
33150;SDS011;19508;42.578;23.416;2024-02-21T00:47:26;19.88;;;9.57;;
33150;SDS011;19508;42.578;23.416;2024-02-21T00:49:52;25.33;;;11.15;;
33150;SDS011;19508;42.578;23.416;2024-02-21T00:52:17;21.73;;;10.50;;
33150;SDS011;19508;42.578;23.416;2024-02-21T00:54:43;20.90;;;10.20;;
33150;SDS011;19508;42.578;23.416;2024-02-21T00:57:08;21.77;;;9.88;;
33150;SDS011;19508;42.578;23.416;2024-02-21T00:59:34;20.15;;;9.32;;
33150;SDS011;19508;42.578;23.416;2024-02-21T01:01:59;20.27;;;9.32;;
33150;SDS011;19508;42.578;23.416;2024-02-21T01:04:24;23.02;;;10.82;;
33150;SDS011;19508;42.578;23.416;2024-02-21T01:06:50;18.60;;;9.90;;
33150;SDS011;19508;42.578;23.416;2024-02-21T01:09:15;22.40;;;10.15;;
33150;SDS011;19508;42.578;23.416;2024-02-21T01:11:41;19.80;;;9.02;;
33150;SDS011;19508;42.578;23.416;2024-02-21T01:14:06;16.45;;;7.72;;
33150;SDS011;19508;42.578;23.416;2024-02-21T01:16:31;15.10;;;7.18;;
33150;SDS011;19508;42.578;23.416;2024-02-21T01:18:57;16.52;;;7.95;;
33150;SDS011;19508;42.578;23.416;2024-02-21T01:21:22;18.02;;;8.80;;
33150;SDS011;19508;42.578;23.416;2024-02-21T01:23:48;18.10;;;8.75;;
33150;SDS011;19508;42.578;23.416;2024-02-21T01:26:13;13.75;;;7.45;;
33150;SDS011;19508;42.578;23.416;2024-02-21T01:28:40;14.30;;;7.57;;
33150;SDS011;19508;42.578;23.416;2024-02-21T01:31:06;13.02;;;6.72;;
33150;SDS011;19508;42.578;23.416;2024-02-21T01:33:32;13.43;;;7.10;;
33150;SDS011;19508;42.578;23.416;2024-02-21T01:36:02;10.55;;;6.13;;
33150;SDS011;19508;42.578;23.416;2024-02-21T01:38:28;11.23;;;5.97;;
33150;SDS011;19508;42.578;23.416;2024-02-21T01:40:54;10.00;;;6.28;;
33150;SDS011;19508;42.578;23.416;2024-02-21T01:43:20;10.55;;;6.47;;
33150;SDS011;19508;42.578;23.416;2024-02-21T01:45:55;12.75;;;6.75;;
33150;SDS011;19508;42.578;23.416;2024-02-21T01:48:21;13.00;;;6.97;;
33150;SDS011;19508;42.578;23.416;2024-02-21T01:50:48;14.30;;;7.38;;
33150;SDS011;19508;42.578;23.416;2024-02-21T01:53:15;17.27;;;7.60;;
33150;SDS011;19508;42.578;23.416;2024-02-21T01:55:46;15.10;;;6.75;;
33150;SDS011;19508;42.578;23.416;2024-02-21T01:58:15;12.13;;;5.72;;
33150;SDS011;19508;42.578;23.416;2024-02-21T02:00:42;18.10;;;9.15;;
33150;SDS011;19508;42.578;23.416;2024-02-21T02:03:11;24.88;;;9.07;;
33150;SDS011;19508;42.578;23.416;2024-02-21T02:05:44;16.95;;;8.32;;
33150;SDS011;19508;42.578;23.416;2024-02-21T02:08:11;19.73;;;8.38;;
33150;SDS011;19508;42.578;23.416;2024-02-21T02:10:44;12.23;;;6.93;;
33150;SDS011;19508;42.578;23.416;2024-02-21T02:13:10;11.77;;;5.65;;
33150;SDS011;19508;42.578;23.416;2024-02-21T02:15:43;11.65;;;6.35;;
33150;SDS011;19508;42.578;23.416;2024-02-21T02:18:09;14.52;;;7.03;;
33150;SDS011;19508;42.578;23.416;2024-02-21T02:20:36;14.15;;;7.63;;
33150;SDS011;19508;42.578;23.416;2024-02-21T02:23:11;16.67;;;9.02;;
33150;SDS011;19508;42.578;23.416;2024-02-21T02:25:52;55.10;;;15.90;;
33150;SDS011;19508;42.578;23.416;2024-02-21T02:28:18;18.73;;;9.02;;
33150;SDS011;19508;42.578;23.416;2024-02-21T02:30:44;50.75;;;14.02;;
33150;SDS011;19508;42.578;23.416;2024-02-21T02:33:09;38.72;;;12.25;;
33150;SDS011;19508;42.578;23.416;2024-02-21T02:35:35;21.55;;;8.82;;
33150;SDS011;19508;42.578;23.416;2024-02-21T02:38:01;14.60;;;7.68;;
33150;SDS011;19508;42.578;23.416;2024-02-21T02:40:33;15.80;;;7.88;;
33150;SDS011;19508;42.578;23.416;2024-02-21T02:42:59;15.35;;;7.45;;
33150;SDS011;19508;42.578;23.416;2024-02-21T02:45:25;15.13;;;8.05;;
33150;SDS011;19508;42.578;23.416;2024-02-21T02:47:53;18.33;;;8.60;;
33150;SDS011;19508;42.578;23.416;2024-02-21T02:50:25;18.40;;;8.13;;
33150;SDS011;19508;42.578;23.416;2024-02-21T02:52:51;17.98;;;8.52;;
33150;SDS011;19508;42.578;23.416;2024-02-21T02:55:17;17.85;;;8.57;;
33150;SDS011;19508;42.578;23.416;2024-02-21T02:57:42;16.95;;;9.23;;
33150;SDS011;19508;42.578;23.416;2024-02-21T03:00:08;15.70;;;8.52;;
33150;SDS011;19508;42.578;23.416;2024-02-21T03:02:35;52.15;;;17.98;;
33150;SDS011;19508;42.578;23.416;2024-02-21T03:05:03;26.83;;;12.50;;
33150;SDS011;19508;42.578;23.416;2024-02-21T03:07:40;21.38;;;9.80;;
33150;SDS011;19508;42.578;23.416;2024-02-21T03:10:06;35.35;;;13.10;;
33150;SDS011;19508;42.578;23.416;2024-02-21T03:12:32;27.25;;;10.88;;
33150;SDS011;19508;42.578;23.416;2024-02-21T03:14:57;27.13;;;12.60;;
33150;SDS011;19508;42.578;23.416;2024-02-21T03:17:22;21.85;;;11.15;;
33150;SDS011;19508;42.578;23.416;2024-02-21T03:19:48;21.88;;;10.02;;
33150;SDS011;19508;42.578;23.416;2024-02-21T03:22:15;18.40;;;9.35;;
33150;SDS011;19508;42.578;23.416;2024-02-21T03:24:41;20.48;;;9.45;;
33150;SDS011;19508;42.578;23.416;2024-02-21T03:27:07;33.00;;;12.73;;
33150;SDS011;19508;42.578;23.416;2024-02-21T03:29:32;25.13;;;11.35;;
33150;SDS011;19508;42.578;23.416;2024-02-21T03:31:57;38.50;;;16.83;;
33150;SDS011;19508;42.578;23.416;2024-02-21T03:34:23;25.75;;;12.60;;
33150;SDS011;19508;42.578;23.416;2024-02-21T03:36:48;27.17;;;14.27;;
33150;SDS011;19508;42.578;23.416;2024-02-21T03:39:13;45.00;;;19.15;;
33150;SDS011;19508;42.578;23.416;2024-02-21T03:41:39;46.35;;;19.95;;
33150;SDS011;19508;42.578;23.416;2024-02-21T03:44:04;37.83;;;16.20;;
33150;SDS011;19508;42.578;23.416;2024-02-21T03:46:30;33.17;;;14.88;;
33150;SDS011;19508;42.578;23.416;2024-02-21T03:48:56;33.50;;;14.60;;
33150;SDS011;19508;42.578;23.416;2024-02-21T03:51:22;28.48;;;12.73;;
33150;SDS011;19508;42.578;23.416;2024-02-21T03:53:48;24.13;;;12.77;;
33150;SDS011;19508;42.578;23.416;2024-02-21T03:56:13;24.05;;;11.48;;
33150;SDS011;19508;42.578;23.416;2024-02-21T03:58:38;27.15;;;12.88;;
33150;SDS011;19508;42.578;23.416;2024-02-21T04:01:04;30.52;;;12.60;;
33150;SDS011;19508;42.578;23.416;2024-02-21T04:03:30;25.48;;;12.27;;
33150;SDS011;19508;42.578;23.416;2024-02-21T04:05:55;23.42;;;11.93;;
33150;SDS011;19508;42.578;23.416;2024-02-21T04:08:22;33.38;;;15.07;;
33150;SDS011;19508;42.578;23.416;2024-02-21T04:10:48;31.65;;;13.55;;
33150;SDS011;19508;42.578;23.416;2024-02-21T04:13:13;49.00;;;20.17;;
33150;SDS011;19508;42.578;23.416;2024-02-21T04:15:38;34.42;;;16.40;;
33150;SDS011;19508;42.578;23.416;2024-02-21T04:18:04;30.27;;;13.30;;
33150;SDS011;19508;42.578;23.416;2024-02-21T04:20:29;29.42;;;12.18;;
33150;SDS011;19508;42.578;23.416;2024-02-21T04:22:55;22.10;;;11.30;;
33150;SDS011;19508;42.578;23.416;2024-02-21T04:25:21;28.83;;;12.38;;
33150;SDS011;19508;42.578;23.416;2024-02-21T04:27:46;28.73;;;13.68;;
33150;SDS011;19508;42.578;23.416;2024-02-21T04:30:12;31.50;;;14.68;;
33150;SDS011;19508;42.578;23.416;2024-02-21T04:32:38;37.05;;;18.25;;
33150;SDS011;19508;42.578;23.416;2024-02-21T04:35:04;27.35;;;13.23;;
33150;SDS011;19508;42.578;23.416;2024-02-21T04:37:29;23.23;;;11.73;;
33150;SDS011;19508;42.578;23.416;2024-02-21T04:39:55;22.23;;;11.02;;
33150;SDS011;19508;42.578;23.416;2024-02-21T04:42:21;25.33;;;11.48;;
33150;SDS011;19508;42.578;23.416;2024-02-21T04:44:46;26.15;;;12.60;;
33150;SDS011;19508;42.578;23.416;2024-02-21T04:47:12;22.90;;;11.57;;
33150;SDS011;19508;42.578;23.416;2024-02-21T04:49:38;22.85;;;12.18;;
33150;SDS011;19508;42.578;23.416;2024-02-21T04:52:03;26.00;;;12.50;;
33150;SDS011;19508;42.578;23.416;2024-02-21T04:54:29;33.75;;;13.05;;
33150;SDS011;19508;42.578;23.416;2024-02-21T04:56:54;28.08;;;13.10;;
33150;SDS011;19508;42.578;23.416;2024-02-21T04:59:19;28.58;;;12.88;;
33150;SDS011;19508;42.578;23.416;2024-02-21T05:01:45;24.92;;;11.88;;
33150;SDS011;19508;42.578;23.416;2024-02-21T05:04:10;28.90;;;12.65;;
33150;SDS011;19508;42.578;23.416;2024-02-21T05:06:39;38.25;;;16.02;;
33150;SDS011;19508;42.578;23.416;2024-02-21T05:09:06;62.40;;;22.60;;
33150;SDS011;19508;42.578;23.416;2024-02-21T05:11:32;52.15;;;21.98;;
33150;SDS011;19508;42.578;23.416;2024-02-21T05:13:57;42.08;;;17.70;;
33150;SDS011;19508;42.578;23.416;2024-02-21T05:16:23;43.00;;;18.08;;
33150;SDS011;19508;42.578;23.416;2024-02-21T05:18:48;32.90;;;14.38;;
33150;SDS011;19508;42.578;23.416;2024-02-21T05:21:13;64.30;;;24.23;;
33150;SDS011;19508;42.578;23.416;2024-02-21T05:23:39;89.47;;;31.65;;
33150;SDS011;19508;42.578;23.416;2024-02-21T05:26:05;54.03;;;22.10;;
33150;SDS011;19508;42.578;23.416;2024-02-21T05:28:31;52.95;;;21.75;;
33150;SDS011;19508;42.578;23.416;2024-02-21T05:30:56;67.03;;;23.65;;
33150;SDS011;19508;42.578;23.416;2024-02-21T05:33:22;42.10;;;17.25;;
33150;SDS011;19508;42.578;23.416;2024-02-21T05:35:47;42.45;;;18.42;;
33150;SDS011;19508;42.578;23.416;2024-02-21T05:38:13;38.53;;;16.70;;
33150;SDS011;19508;42.578;23.416;2024-02-21T05:40:39;40.85;;;17.25;;
33150;SDS011;19508;42.578;23.416;2024-02-21T05:43:05;49.67;;;19.30;;
33150;SDS011;19508;42.578;23.416;2024-02-21T05:45:31;37.80;;;18.65;;
33150;SDS011;19508;42.578;23.416;2024-02-21T05:47:57;56.42;;;24.10;;
33150;SDS011;19508;42.578;23.416;2024-02-21T05:50:22;46.65;;;19.85;;
33150;SDS011;19508;42.578;23.416;2024-02-21T05:52:51;41.03;;;18.77;;
33150;SDS011;19508;42.578;23.416;2024-02-21T05:55:16;36.97;;;15.25;;
33150;SDS011;19508;42.578;23.416;2024-02-21T05:57:42;39.60;;;15.98;;
33150;SDS011;19508;42.578;23.416;2024-02-21T06:00:07;32.95;;;14.75;;
33150;SDS011;19508;42.578;23.416;2024-02-21T06:02:33;35.75;;;16.08;;
33150;SDS011;19508;42.578;23.416;2024-02-21T06:04:58;37.38;;;15.85;;
33150;SDS011;19508;42.578;23.416;2024-02-21T06:07:24;31.60;;;15.32;;
33150;SDS011;19508;42.578;23.416;2024-02-21T06:09:49;39.15;;;18.02;;
33150;SDS011;19508;42.578;23.416;2024-02-21T06:12:15;35.65;;;16.83;;
33150;SDS011;19508;42.578;23.416;2024-02-21T06:14:40;37.15;;;17.70;;
33150;SDS011;19508;42.578;23.416;2024-02-21T06:17:05;49.97;;;21.70;;
33150;SDS011;19508;42.578;23.416;2024-02-21T06:19:31;33.40;;;15.02;;
33150;SDS011;19508;42.578;23.416;2024-02-21T06:21:56;28.88;;;14.30;;
33150;SDS011;19508;42.578;23.416;2024-02-21T06:24:21;33.80;;;15.85;;
33150;SDS011;19508;42.578;23.416;2024-02-21T06:26:47;92.07;;;34.42;;
33150;SDS011;19508;42.578;23.416;2024-02-21T06:29:12;70.97;;;26.13;;
33150;SDS011;19508;42.578;23.416;2024-02-21T06:31:38;63.17;;;22.85;;
33150;SDS011;19508;42.578;23.416;2024-02-21T06:34:05;114.65;;;39.90;;
33150;SDS011;19508;42.578;23.416;2024-02-21T06:36:30;20.20;;;11.20;;
33150;SDS011;19508;42.578;23.416;2024-02-21T06:38:55;31.92;;;15.02;;
33150;SDS011;19508;42.578;23.416;2024-02-21T06:41:21;28.95;;;13.95;;
33150;SDS011;19508;42.578;23.416;2024-02-21T06:43:46;57.03;;;22.48;;
33150;SDS011;19508;42.578;23.416;2024-02-21T06:46:12;50.30;;;20.70;;
33150;SDS011;19508;42.578;23.416;2024-02-21T06:48:54;25.73;;;11.88;;
33150;SDS011;19508;42.578;23.416;2024-02-21T06:51:21;19.73;;;10.27;;
33150;SDS011;19508;42.578;23.416;2024-02-21T06:53:47;51.60;;;20.65;;
33150;SDS011;19508;42.578;23.416;2024-02-21T06:56:13;42.78;;;19.25;;
33150;SDS011;19508;42.578;23.416;2024-02-21T06:58:38;41.03;;;16.85;;
33150;SDS011;19508;42.578;23.416;2024-02-21T07:01:04;43.17;;;16.85;;
33150;SDS011;19508;42.578;23.416;2024-02-21T07:03:29;28.42;;;13.68;;
33150;SDS011;19508;42.578;23.416;2024-02-21T07:05:54;77.13;;;36.35;;
33150;SDS011;19508;42.578;23.416;2024-02-21T07:08:20;31.33;;;15.38;;
33150;SDS011;19508;42.578;23.416;2024-02-21T07:10:45;28.20;;;14.13;;
33150;SDS011;19508;42.578;23.416;2024-02-21T07:13:10;27.73;;;13.30;;
33150;SDS011;19508;42.578;23.416;2024-02-21T07:15:36;45.50;;;20.05;;
33150;SDS011;19508;42.578;23.416;2024-02-21T07:18:02;32.85;;;16.23;;
33150;SDS011;19508;42.578;23.416;2024-02-21T07:20:28;28.08;;;15.95;;
33150;SDS011;19508;42.578;23.416;2024-02-21T07:22:54;35.33;;;14.82;;
33150;SDS011;19508;42.578;23.416;2024-02-21T07:25:19;26.83;;;14.15;;
33150;SDS011;19508;42.578;23.416;2024-02-21T07:27:45;39.00;;;19.80;;
33150;SDS011;19508;42.578;23.416;2024-02-21T07:30:10;24.08;;;12.77;;
33150;SDS011;19508;42.578;23.416;2024-02-21T07:32:36;34.15;;;15.25;;
33150;SDS011;19508;42.578;23.416;2024-02-21T07:35:01;32.13;;;15.25;;
33150;SDS011;19508;42.578;23.416;2024-02-21T07:37:27;27.55;;;14.27;;
33150;SDS011;19508;42.578;23.416;2024-02-21T07:39:52;38.03;;;17.92;;
33150;SDS011;19508;42.578;23.416;2024-02-21T07:42:18;34.75;;;15.77;;
33150;SDS011;19508;42.578;23.416;2024-02-21T07:44:43;39.50;;;13.55;;
33150;SDS011;19508;42.578;23.416;2024-02-21T07:47:08;31.27;;;13.93;;
33150;SDS011;19508;42.578;23.416;2024-02-21T07:49:40;32.20;;;14.13;;
33150;SDS011;19508;42.578;23.416;2024-02-21T07:52:06;37.85;;;16.88;;
33150;SDS011;19508;42.578;23.416;2024-02-21T07:54:32;27.48;;;15.15;;
33150;SDS011;19508;42.578;23.416;2024-02-21T07:56:58;27.42;;;13.55;;
33150;SDS011;19508;42.578;23.416;2024-02-21T07:59:23;25.23;;;13.02;;
33150;SDS011;19508;42.578;23.416;2024-02-21T08:01:48;32.28;;;14.38;;
33150;SDS011;19508;42.578;23.416;2024-02-21T08:04:14;27.35;;;14.48;;
33150;SDS011;19508;42.578;23.416;2024-02-21T08:06:39;26.33;;;13.68;;
33150;SDS011;19508;42.578;23.416;2024-02-21T08:09:05;28.52;;;14.07;;
33150;SDS011;19508;42.578;23.416;2024-02-21T08:11:30;28.83;;;14.50;;
33150;SDS011;19508;42.578;23.416;2024-02-21T08:13:55;27.17;;;14.48;;
33150;SDS011;19508;42.578;23.416;2024-02-21T08:16:22;31.50;;;15.18;;
33150;SDS011;19508;42.578;23.416;2024-02-21T08:18:47;30.02;;;15.25;;
33150;SDS011;19508;42.578;23.416;2024-02-21T08:21:13;33.42;;;15.68;;
33150;SDS011;19508;42.578;23.416;2024-02-21T08:23:38;31.98;;;14.45;;
33150;SDS011;19508;42.578;23.416;2024-02-21T08:26:03;28.95;;;14.95;;
33150;SDS011;19508;42.578;23.416;2024-02-21T08:28:29;32.58;;;14.27;;
33150;SDS011;19508;42.578;23.416;2024-02-21T08:30:56;27.98;;;12.90;;
33150;SDS011;19508;42.578;23.416;2024-02-21T08:33:21;24.58;;;12.60;;
33150;SDS011;19508;42.578;23.416;2024-02-21T08:35:50;24.48;;;11.80;;
33150;SDS011;19508;42.578;23.416;2024-02-21T08:38:16;26.15;;;13.52;;
33150;SDS011;19508;42.578;23.416;2024-02-21T08:40:41;26.48;;;12.90;;
33150;SDS011;19508;42.578;23.416;2024-02-21T08:43:07;24.27;;;11.77;;
33150;SDS011;19508;42.578;23.416;2024-02-21T08:45:32;21.15;;;10.27;;
33150;SDS011;19508;42.578;23.416;2024-02-21T08:47:57;22.42;;;12.75;;
33150;SDS011;19508;42.578;23.416;2024-02-21T08:50:23;23.45;;;11.02;;
33150;SDS011;19508;42.578;23.416;2024-02-21T08:52:48;24.58;;;13.90;;
33150;SDS011;19508;42.578;23.416;2024-02-21T08:55:13;24.50;;;13.63;;
33150;SDS011;19508;42.578;23.416;2024-02-21T08:57:39;26.85;;;13.57;;
33150;SDS011;19508;42.578;23.416;2024-02-21T09:00:05;27.75;;;14.68;;
33150;SDS011;19508;42.578;23.416;2024-02-21T09:02:43;31.00;;;15.32;;
33150;SDS011;19508;42.578;23.416;2024-02-21T09:05:09;29.23;;;12.80;;
33150;SDS011;19508;42.578;23.416;2024-02-21T09:07:34;26.25;;;13.50;;
33150;SDS011;19508;42.578;23.416;2024-02-21T09:09:59;29.40;;;14.15;;
33150;SDS011;19508;42.578;23.416;2024-02-21T09:12:25;27.83;;;12.75;;
33150;SDS011;19508;42.578;23.416;2024-02-21T09:14:51;21.13;;;12.63;;
33150;SDS011;19508;42.578;23.416;2024-02-21T09:17:16;21.17;;;11.57;;
33150;SDS011;19508;42.578;23.416;2024-02-21T09:19:50;32.28;;;10.93;;
33150;SDS011;19508;42.578;23.416;2024-02-21T09:22:25;23.63;;;13.48;;
33150;SDS011;19508;42.578;23.416;2024-02-21T09:24:50;24.95;;;13.15;;
33150;SDS011;19508;42.578;23.416;2024-02-21T09:27:16;25.25;;;12.70;;
33150;SDS011;19508;42.578;23.416;2024-02-21T09:29:41;23.45;;;12.82;;
33150;SDS011;19508;42.578;23.416;2024-02-21T09:32:06;21.52;;;11.35;;
33150;SDS011;19508;42.578;23.416;2024-02-21T09:34:32;21.20;;;11.05;;
33150;SDS011;19508;42.578;23.416;2024-02-21T09:36:57;19.00;;;10.02;;
33150;SDS011;19508;42.578;23.416;2024-02-21T09:39:23;24.25;;;10.00;;
33150;SDS011;19508;42.578;23.416;2024-02-21T09:41:50;22.10;;;10.73;;
33150;SDS011;19508;42.578;23.416;2024-02-21T09:44:20;18.02;;;10.27;;
33150;SDS011;19508;42.578;23.416;2024-02-21T09:46:55;20.50;;;8.38;;
33150;SDS011;19508;42.578;23.416;2024-02-21T09:49:32;15.32;;;8.93;;
33150;SDS011;19508;42.578;23.416;2024-02-21T09:52:00;14.85;;;8.57;;
33150;SDS011;19508;42.578;23.416;2024-02-21T09:54:28;12.82;;;7.95;;
33150;SDS011;19508;42.578;23.416;2024-02-21T09:56:56;15.10;;;8.23;;
33150;SDS011;19508;42.578;23.416;2024-02-21T09:59:21;14.63;;;8.25;;
33150;SDS011;19508;42.578;23.416;2024-02-21T10:01:49;17.20;;;8.68;;
33150;SDS011;19508;42.578;23.416;2024-02-21T10:04:16;15.38;;;8.35;;
33150;SDS011;19508;42.578;23.416;2024-02-21T10:06:41;15.55;;;9.18;;
33150;SDS011;19508;42.578;23.416;2024-02-21T10:09:07;15.75;;;9.88;;
33150;SDS011;19508;42.578;23.416;2024-02-21T10:11:32;16.65;;;9.63;;
33150;SDS011;19508;42.578;23.416;2024-02-21T10:14:07;21.42;;;10.50;;
33150;SDS011;19508;42.578;23.416;2024-02-21T10:16:33;16.50;;;9.32;;
33150;SDS011;19508;42.578;23.416;2024-02-21T10:18:59;20.10;;;10.10;;
33150;SDS011;19508;42.578;23.416;2024-02-21T10:21:24;25.55;;;10.43;;
33150;SDS011;19508;42.578;23.416;2024-02-21T10:23:50;20.63;;;9.70;;
33150;SDS011;19508;42.578;23.416;2024-02-21T10:26:17;17.13;;;9.98;;
33150;SDS011;19508;42.578;23.416;2024-02-21T10:28:44;14.88;;;7.65;;
33150;SDS011;19508;42.578;23.416;2024-02-21T10:31:20;17.90;;;9.27;;
33150;SDS011;19508;42.578;23.416;2024-02-21T10:33:53;13.25;;;8.52;;
33150;SDS011;19508;42.578;23.416;2024-02-21T10:36:28;26.10;;;9.13;;
33150;SDS011;19508;42.578;23.416;2024-02-21T10:38:54;20.20;;;9.00;;
33150;SDS011;19508;42.578;23.416;2024-02-21T10:41:20;14.25;;;8.07;;
33150;SDS011;19508;42.578;23.416;2024-02-21T10:43:49;26.15;;;8.48;;
33150;SDS011;19508;42.578;23.416;2024-02-21T10:46:18;15.20;;;7.75;;
33150;SDS011;19508;42.578;23.416;2024-02-21T10:48:45;14.88;;;6.88;;
33150;SDS011;19508;42.578;23.416;2024-02-21T10:54:47;14.15;;;7.53;;
33150;SDS011;19508;42.578;23.416;2024-02-21T10:56:55;14.90;;;6.72;;
33150;SDS011;19508;42.578;23.416;2024-02-21T10:59:22;14.93;;;7.05;;
33150;SDS011;19508;42.578;23.416;2024-02-21T11:01:48;11.60;;;6.75;;
33150;SDS011;19508;42.578;23.416;2024-02-21T11:04:14;15.57;;;6.93;;
33150;SDS011;19508;42.578;23.416;2024-02-21T11:06:39;10.30;;;6.35;;
33150;SDS011;19508;42.578;23.416;2024-02-21T11:09:06;11.75;;;6.75;;
33150;SDS011;19508;42.578;23.416;2024-02-21T11:14:04;12.13;;;6.65;;
33150;SDS011;19508;42.578;23.416;2024-02-21T11:16:47;13.82;;;7.57;;
33150;SDS011;19508;42.578;23.416;2024-02-21T11:19:22;13.52;;;6.63;;
33150;SDS011;19508;42.578;23.416;2024-02-21T11:21:51;9.45;;;5.63;;
33150;SDS011;19508;42.578;23.416;2024-02-21T11:24:32;9.90;;;5.88;;
33150;SDS011;19508;42.578;23.416;2024-02-21T11:27:08;9.90;;;5.90;;
33150;SDS011;19508;42.578;23.416;2024-02-21T11:29:49;14.13;;;5.90;;
33150;SDS011;19508;42.578;23.416;2024-02-21T11:32:20;13.98;;;7.38;;
33150;SDS011;19508;42.578;23.416;2024-02-21T11:37:29;14.40;;;6.38;;
33150;SDS011;19508;42.578;23.416;2024-02-21T11:39:55;11.88;;;6.22;;
33150;SDS011;19508;42.578;23.416;2024-02-21T11:42:21;9.15;;;5.97;;
33150;SDS011;19508;42.578;23.416;2024-02-21T11:44:47;11.95;;;5.93;;
33150;SDS011;19508;42.578;23.416;2024-02-21T11:47:13;7.90;;;4.88;;
33150;SDS011;19508;42.578;23.416;2024-02-21T11:49:44;14.05;;;6.07;;
33150;SDS011;19508;42.578;23.416;2024-02-21T11:52:11;11.98;;;5.60;;
33150;SDS011;19508;42.578;23.416;2024-02-21T11:54:37;8.90;;;5.32;;
33150;SDS011;19508;42.578;23.416;2024-02-21T11:57:02;8.60;;;5.20;;
33150;SDS011;19508;42.578;23.416;2024-02-21T11:59:32;8.50;;;4.97;;
33150;SDS011;19508;42.578;23.416;2024-02-21T12:01:59;7.70;;;4.82;;
33150;SDS011;19508;42.578;23.416;2024-02-21T12:04:25;7.97;;;4.88;;
33150;SDS011;19508;42.578;23.416;2024-02-21T12:06:52;16.95;;;4.68;;
33150;SDS011;19508;42.578;23.416;2024-02-21T12:09:19;11.32;;;4.93;;
33150;SDS011;19508;42.578;23.416;2024-02-21T12:11:45;10.52;;;4.18;;
33150;SDS011;19508;42.578;23.416;2024-02-21T12:14:15;5.28;;;3.58;;
33150;SDS011;19508;42.578;23.416;2024-02-21T12:16:41;7.60;;;4.35;;
33150;SDS011;19508;42.578;23.416;2024-02-21T12:19:07;7.60;;;4.60;;
33150;SDS011;19508;42.578;23.416;2024-02-21T12:21:34;7.68;;;4.78;;
33150;SDS011;19508;42.578;23.416;2024-02-21T12:24:12;11.55;;;4.20;;
33150;SDS011;19508;42.578;23.416;2024-02-21T12:26:42;10.00;;;3.92;;
33150;SDS011;19508;42.578;23.416;2024-02-21T12:29:07;5.15;;;3.65;;
33150;SDS011;19508;42.578;23.416;2024-02-21T12:31:39;7.70;;;4.82;;
33150;SDS011;19508;42.578;23.416;2024-02-21T12:34:05;7.72;;;3.80;;
33150;SDS011;19508;42.578;23.416;2024-02-21T12:36:35;8.80;;;5.00;;
33150;SDS011;19508;42.578;23.416;2024-02-21T12:39:05;17.50;;;4.10;;
33150;SDS011;19508;42.578;23.416;2024-02-21T12:41:31;6.57;;;4.07;;
33150;SDS011;19508;42.578;23.416;2024-02-21T12:43:58;8.18;;;4.32;;
33150;SDS011;19508;42.578;23.416;2024-02-21T12:46:23;6.88;;;4.28;;
33150;SDS011;19508;42.578;23.416;2024-02-21T12:48:49;10.55;;;4.00;;
33150;SDS011;19508;42.578;23.416;2024-02-21T12:51:15;12.80;;;4.72;;
33150;SDS011;19508;42.578;23.416;2024-02-21T12:53:45;10.52;;;4.93;;
33150;SDS011;19508;42.578;23.416;2024-02-21T12:56:12;10.65;;;5.38;;
33150;SDS011;19508;42.578;23.416;2024-02-21T12:58:37;16.23;;;5.40;;
33150;SDS011;19508;42.578;23.416;2024-02-21T13:01:03;12.40;;;5.03;;
33150;SDS011;19508;42.578;23.416;2024-02-21T13:03:29;9.27;;;5.45;;
33150;SDS011;19508;42.578;23.416;2024-02-21T13:05:55;10.55;;;5.00;;
33150;SDS011;19508;42.578;23.416;2024-02-21T13:08:21;7.13;;;4.70;;
33150;SDS011;19508;42.578;23.416;2024-02-21T13:10:48;9.75;;;5.25;;
33150;SDS011;19508;42.578;23.416;2024-02-21T13:13:14;7.93;;;4.60;;
33150;SDS011;19508;42.578;23.416;2024-02-21T13:15:39;7.80;;;4.43;;
33150;SDS011;19508;42.578;23.416;2024-02-21T13:18:07;12.43;;;5.70;;
33150;SDS011;19508;42.578;23.416;2024-02-21T13:20:33;9.75;;;5.10;;
33150;SDS011;19508;42.578;23.416;2024-02-21T13:22:59;8.77;;;4.97;;
33150;SDS011;19508;42.578;23.416;2024-02-21T13:25:24;11.07;;;5.25;;
33150;SDS011;19508;42.578;23.416;2024-02-21T13:27:49;9.48;;;4.95;;
33150;SDS011;19508;42.578;23.416;2024-02-21T13:30:15;10.93;;;4.93;;
33150;SDS011;19508;42.578;23.416;2024-02-21T13:32:43;8.52;;;3.30;;
33150;SDS011;19508;42.578;23.416;2024-02-21T13:35:11;8.63;;;3.78;;
33150;SDS011;19508;42.578;23.416;2024-02-21T13:37:40;9.10;;;5.63;;
33150;SDS011;19508;42.578;23.416;2024-02-21T13:40:06;13.77;;;6.55;;
33150;SDS011;19508;42.578;23.416;2024-02-21T13:42:34;9.13;;;5.03;;
33150;SDS011;19508;42.578;23.416;2024-02-21T13:45:00;10.20;;;4.80;;
33150;SDS011;19508;42.578;23.416;2024-02-21T13:47:26;8.68;;;4.72;;
33150;SDS011;19508;42.578;23.416;2024-02-21T13:49:52;21.02;;;7.40;;
33150;SDS011;19508;42.578;23.416;2024-02-21T13:52:17;7.65;;;3.90;;
33150;SDS011;19508;42.578;23.416;2024-02-21T13:54:46;11.07;;;6.05;;
33150;SDS011;19508;42.578;23.416;2024-02-21T13:57:11;10.73;;;6.22;;
33150;SDS011;19508;42.578;23.416;2024-02-21T13:59:37;15.43;;;6.57;;
33150;SDS011;19508;42.578;23.416;2024-02-21T14:02:02;12.18;;;6.78;;
33150;SDS011;19508;42.578;23.416;2024-02-21T14:04:28;15.43;;;7.65;;
33150;SDS011;19508;42.578;23.416;2024-02-21T14:06:55;10.63;;;6.07;;
33150;SDS011;19508;42.578;23.416;2024-02-21T14:09:27;12.25;;;6.95;;
33150;SDS011;19508;42.578;23.416;2024-02-21T14:11:54;11.15;;;5.78;;
33150;SDS011;19508;42.578;23.416;2024-02-21T14:14:20;17.27;;;6.95;;
33150;SDS011;19508;42.578;23.416;2024-02-21T14:16:45;16.25;;;7.03;;
33150;SDS011;19508;42.578;23.416;2024-02-21T14:19:12;18.70;;;7.60;;
33150;SDS011;19508;42.578;23.416;2024-02-21T14:21:38;13.65;;;6.35;;